Terminal Aerodrome Forecast
Issued by NWS Charleston, WV

Current Version | Previous Version | Graphics & Text | Print | Product List | Glossary On
Versions: 1 2 3 4 5 6 7 8 9 10 11 12 13 14 15 16 17 18 19 20 21 22 23 24 25
000
FTUS41 KRLX 172343
TAFCRW
TAF
KCRW 172343Z 1800/1824 06005KT 6SM -RA SCT030 BKN070
     FM180300 06005KT P6SM OVC040
     FM180600 09006KT 6SM BR OVC020
     FM181100 05005KT 3SM BR OVC010
     FM181500 07005KT 6SM -SHRA OVC020=

USA.gov is the U.S. government's official web portal to all federal, state and local government web resources and services.